Alyeska Resort
Max's Hourly Weather Roundup
ALYESKA_MAX 7/5/2015
Click Here for Graph

        DATE  TIME   Air  Wind  Wind  Wind  BATT   Rel
                    Temp   Spd   Dir  Gust  Volt  Hum%
                      F   MPH   AVG   MPH   AVG   AVG

    7/5/2015 18:00    61     4   128    10 13.82    78
    7/5/2015 17:00    62     5   130    18 13.74    77
    7/5/2015 16:00    61     5   185    14 13.64    80
    7/5/2015 15:00    60     4   172    12 13.58    83
    7/5/2015 14:00    58     4   181    11 13.55    88
    7/5/2015 13:00    56     2   174     7 13.55    94
    7/5/2015 12:00    56     1   159     6 13.56    92
    7/5/2015 11:00    53     2   107     7 13.59    91
    7/5/2015 10:00    51     2   180     5 13.59    94
    7/5/2015 09:00    50     2   167     4 13.35    89
    7/5/2015 08:00    47     2   209     5 12.86    94
    7/5/2015 07:00    47     2   103     5 12.77    94
    7/5/2015 06:00    46     3   147     7 12.76    96
    7/5/2015 05:00    46     2   164     7 12.77    98
    7/5/2015 04:00    44     6    62    11 12.79   100
    7/5/2015 03:00    44     3   191    10 12.81   100
    7/5/2015 02:00    43     3    92     7 12.84   100
    7/5/2015 01:00    43     5    54    10 12.88   100
    7/4/2015 24:00    44     3   118     9 12.92   100
    7/4/2015 23:00    44     4   112    17 13.00   100
    7/4/2015 22:00    44     7   105    23 13.16   100
    7/4/2015 21:00    45     8   112    20 13.78   100
    7/4/2015 20:00    45     9    99    24 13.73   100
    7/4/2015 19:00    46     6   124    32 13.94    99


Click Here for Graph